createdAt,value
2019-02-04T00:00:45.135Z,0.01
2019-02-04T00:03:15.463Z,0.06
2019-02-04T00:05:44.267Z,-0.01
2019-02-04T00:08:13.387Z,-0.11
2019-02-04T00:10:43.048Z,-0.13
2019-02-04T00:13:11.990Z,-0.18
2019-02-04T00:15:40.985Z,-0.19
2019-02-04T00:18:10.027Z,-0.18
2019-02-04T00:20:38.730Z,-0.19
2019-02-04T00:23:07.698Z,-0.26
2019-02-04T00:25:36.931Z,-0.30
2019-02-04T00:28:05.820Z,-0.35
2019-02-04T00:30:34.632Z,-0.31
2019-02-04T00:33:03.553Z,-0.34
2019-02-04T00:35:32.263Z,-0.37
2019-02-04T00:38:00.916Z,-0.38
2019-02-04T00:40:30.535Z,-0.42
2019-02-04T00:42:59.451Z,-0.48
2019-02-04T00:45:28.165Z,-0.52
2019-02-04T00:47:56.801Z,-0.50
2019-02-04T00:50:25.684Z,-0.51
2019-02-04T00:52:54.646Z,-0.51
2019-02-04T00:55:24.206Z,-0.53
2019-02-04T00:57:52.836Z,-0.57
2019-02-04T01:00:24.271Z,-0.51
2019-02-04T01:02:53.437Z,-0.56
2019-02-04T01:05:22.681Z,-0.51
2019-02-04T01:07:51.739Z,-0.54
2019-02-04T01:10:22.946Z,-0.62
2019-02-04T01:12:51.692Z,-0.67
2019-02-04T01:15:20.584Z,-0.60
2019-02-04T01:17:49.418Z,-0.60
2019-02-04T01:20:23.585Z,-0.65
2019-02-04T01:22:52.942Z,-0.70
2019-02-04T01:25:21.855Z,-0.72
2019-02-04T01:27:50.762Z,-0.68
2019-02-04T01:30:20.707Z,-0.70
2019-02-04T01:32:49.961Z,-0.77
2019-02-04T01:35:18.683Z,-0.68
2019-02-04T01:37:48.568Z,-0.67
2019-02-04T01:40:19.862Z,-0.62
2019-02-04T01:42:48.984Z,-0.73
2019-02-04T01:45:17.981Z,-0.72
2019-02-04T01:47:46.870Z,-0.64
2019-02-04T01:50:17.846Z,-0.79
2019-02-04T01:52:46.782Z,-0.72
2019-02-04T01:55:15.571Z,-0.65
2019-02-04T01:57:44.992Z,-0.68
2019-02-04T02:00:19.887Z,-0.63
2019-02-04T02:02:48.842Z,-0.81
2019-02-04T02:05:17.710Z,-0.79
2019-02-04T02:07:46.460Z,-0.80
2019-02-04T02:10:17.672Z,-0.93
2019-02-04T02:12:46.367Z,-0.81
2019-02-04T02:15:15.106Z,-0.91
2019-02-04T02:17:44.012Z,-0.87
2019-02-04T02:20:15.142Z,-0.79
2019-02-04T02:22:43.834Z,-0.82
2019-02-04T02:25:12.630Z,-0.75
2019-02-04T02:27:41.752Z,-0.87
2019-02-04T02:30:13.827Z,-0.81
2019-02-04T02:32:42.901Z,-0.87
2019-02-04T02:35:11.940Z,-0.87
2019-02-04T02:37:40.633Z,-0.87
2019-02-04T02:40:13.439Z,-0.87
2019-02-04T02:42:42.331Z,-0.87
2019-02-04T02:45:11.244Z,-0.95
2019-02-04T02:47:40.437Z,-0.90
2019-02-04T02:50:09.613Z,-0.84
2019-02-04T02:52:38.493Z,-0.80
2019-02-04T02:55:09.307Z,-0.84
2019-02-04T02:57:38.239Z,-0.74
2019-02-04T03:00:09.281Z,-0.75
2019-02-04T03:02:38.258Z,-0.71
2019-02-04T03:05:09.450Z,-0.76
2019-02-04T03:07:38.657Z,-0.69
2019-02-04T03:10:09.663Z,-0.60
2019-02-04T03:12:38.591Z,-0.60
2019-02-04T03:15:08.339Z,-0.56
2019-02-04T03:17:37.368Z,-0.60
2019-02-04T03:20:07.471Z,-0.67
2019-02-04T03:22:36.139Z,-0.65
2019-02-04T03:25:05.661Z,-0.67
2019-02-04T03:27:34.739Z,-0.63
2019-02-04T03:30:03.979Z,-0.56
2019-02-04T03:32:32.889Z,-0.61
2019-02-04T03:35:01.798Z,-0.63
2019-02-04T03:37:30.541Z,-0.69
2019-02-04T03:39:59.170Z,-0.71
2019-02-04T03:42:28.233Z,-0.67
2019-02-04T03:44:57.128Z,-0.72
2019-02-04T03:47:26.002Z,-0.84
2019-02-04T03:49:55.151Z,-0.92
2019-02-04T03:52:24.091Z,-0.96
2019-02-04T03:54:52.828Z,-0.79
2019-02-04T03:57:21.792Z,-0.76
2019-02-04T03:59:50.522Z,-0.76
2019-02-04T04:02:19.147Z,-0.82
2019-02-04T04:04:48.024Z,-0.83
2019-02-04T04:07:16.945Z,-0.86
2019-02-04T04:09:46.149Z,-0.84
2019-02-04T04:12:14.989Z,-0.88
2019-02-04T04:14:43.907Z,-0.91
2019-02-04T04:17:12.575Z,-0.93
2019-02-04T04:19:41.461Z,-0.91
2019-02-04T04:22:10.500Z,-0.96
2019-02-04T04:24:39.250Z,-0.74
2019-02-04T04:27:08.137Z,-0.65
2019-02-04T04:29:37.030Z,-0.55
2019-02-04T04:32:06.018Z,-0.55
2019-02-04T04:34:34.646Z,-0.46
2019-02-04T04:37:03.296Z,-0.48
2019-02-04T04:39:32.451Z,-0.40
2019-02-04T04:42:01.520Z,-0.45
2019-02-04T04:44:30.437Z,-0.44
2019-02-04T04:46:59.346Z,-0.47
2019-02-04T04:49:28.598Z,-0.50
2019-02-04T04:51:57.514Z,-0.42
2019-02-04T04:54:27.054Z,-0.39
2019-02-04T04:56:56.646Z,-0.28
2019-02-04T04:59:25.418Z,-0.26
2019-02-04T05:01:54.308Z,-0.36
2019-02-04T05:04:23.234Z,-0.42
2019-02-04T05:06:52.225Z,-0.45
2019-02-04T05:09:21.101Z,-0.50
2019-02-04T05:11:49.824Z,-0.53
2019-02-04T05:14:18.596Z,-0.63
2019-02-04T05:16:47.306Z,-0.73
2019-02-04T05:19:15.927Z,-0.81
2019-02-04T05:21:44.591Z,-0.86
2019-02-04T05:24:13.515Z,-0.94
2019-02-04T05:26:43.187Z,-1.08
2019-02-04T05:29:11.859Z,-1.20
2019-02-04T05:31:40.950Z,-1.17
2019-02-04T05:34:09.824Z,-1.08
2019-02-04T05:36:38.756Z,-0.99
2019-02-04T05:39:08.600Z,-1.00
2019-02-04T05:41:37.813Z,-0.98
2019-02-04T05:44:06.563Z,-0.98
2019-02-04T05:46:35.458Z,-0.87
2019-02-04T05:49:04.113Z,-0.78
2019-02-04T05:51:33.018Z,-0.86
2019-02-04T05:54:01.748Z,-0.87
2019-02-04T05:56:31.484Z,-0.94
2019-02-04T05:59:00.457Z,-0.98
2019-02-04T06:01:29.094Z,-1.07
2019-02-04T06:03:57.748Z,-1.19
2019-02-04T06:06:26.682Z,-1.08
2019-02-04T06:08:56.100Z,-1.09
2019-02-04T06:11:25.380Z,-1.01
2019-02-04T06:13:54.066Z,-0.96
2019-02-04T06:16:22.673Z,-0.93
2019-02-04T06:19:00.431Z,-0.92
2019-02-04T06:21:22.194Z,-0.91
2019-02-04T06:23:52.207Z,-0.92
2019-02-04T06:26:21.309Z,-0.93
2019-02-04T06:28:50.001Z,-0.95
2019-02-04T06:31:18.649Z,-0.99
2019-02-04T06:33:47.549Z,-0.98
2019-02-04T06:36:16.684Z,-1.14
2019-02-04T06:38:45.396Z,-1.19
2019-02-04T06:41:14.570Z,-1.18
2019-02-04T06:43:43.457Z,-1.18
2019-02-04T06:46:12.099Z,-1.05
2019-02-04T06:48:41.135Z,-1.01
2019-02-04T06:51:09.790Z,-0.92
2019-02-04T06:53:38.445Z,-0.84
2019-02-04T06:56:07.618Z,-0.80
2019-02-04T06:58:36.524Z,-0.79
2019-02-04T07:01:05.477Z,-0.69
2019-02-04T07:03:34.466Z,-0.71
2019-02-04T07:06:03.149Z,-0.82
2019-02-04T07:08:32.010Z,-0.87
2019-02-04T07:11:01.384Z,-0.90
2019-02-04T07:13:30.139Z,-0.81
2019-02-04T07:15:58.792Z,-0.96
2019-02-04T07:18:27.684Z,-1.00
2019-02-04T07:20:57.252Z,-1.08
2019-02-04T07:23:25.917Z,-1.16
2019-02-04T07:25:54.830Z,-1.16
2019-02-04T07:28:23.805Z,-1.10
2019-02-04T07:30:53.011Z,-1.09
2019-02-04T07:33:21.625Z,-0.98
2019-02-04T07:35:50.549Z,-1.11
2019-02-04T07:38:19.215Z,-1.16
2019-02-04T07:40:47.866Z,-1.19
2019-02-04T07:43:16.836Z,-1.19
2019-02-04T07:45:45.743Z,-1.21
2019-02-04T07:48:14.632Z,-1.17
2019-02-04T07:50:43.525Z,-1.10
2019-02-04T07:53:12.412Z,-1.01
2019-02-04T07:55:41.356Z,-0.85
2019-02-04T07:58:10.446Z,-0.77
2019-02-04T08:00:39.631Z,-0.71
2019-02-04T08:03:08.629Z,-0.60
2019-02-04T08:05:37.383Z,-0.53
2019-02-04T08:08:06.344Z,-0.44
2019-02-04T08:10:35.437Z,-0.36
2019-02-04T08:13:04.596Z,-0.26
2019-02-04T08:15:35.619Z,-0.25
2019-02-04T08:18:05.580Z,-0.16
2019-02-04T08:20:34.443Z,-0.22
2019-02-04T08:23:03.084Z,-0.09
2019-02-04T08:25:31.845Z,-0.03
2019-02-04T08:28:00.608Z,-0.02
2019-02-04T08:30:31.739Z,0.32
2019-02-04T08:33:00.722Z,0.60
2019-02-04T08:35:30.561Z,0.90
2019-02-04T08:37:59.695Z,0.86
2019-02-04T08:40:28.518Z,1.36
2019-02-04T08:42:57.336Z,1.07
2019-02-04T08:45:26.202Z,1.26
2019-02-04T08:47:55.082Z,1.11
2019-02-04T08:50:24.255Z,1.18
2019-02-04T08:52:53.488Z,1.20
2019-02-04T08:55:22.182Z,1.29
2019-02-04T08:57:51.449Z,1.47
2019-02-04T09:00:21.045Z,2.12
2019-02-04T09:02:50.131Z,2.30
2019-02-04T09:05:18.996Z,2.53
2019-02-04T09:07:48.259Z,2.66
2019-02-04T09:10:29.024Z,2.44
2019-02-04T09:12:58.171Z,2.40
2019-02-04T09:15:26.878Z,3.16
2019-02-04T09:17:55.870Z,2.91
2019-02-04T09:20:25.153Z,2.94
2019-02-04T09:22:54.098Z,2.94
2019-02-04T09:25:23.899Z,3.18
2019-02-04T09:27:53.067Z,3.23
2019-02-04T09:30:23.572Z,3.23
2019-02-04T09:32:52.941Z,3.14
2019-02-04T09:35:21.987Z,3.14
2019-02-04T09:37:51.099Z,3.72
2019-02-04T09:40:23.305Z,3.50
2019-02-04T09:42:52.391Z,3.60
2019-02-04T09:45:24.271Z,3.62
2019-02-04T09:47:51.665Z,3.09
2019-02-04T09:50:22.172Z,3.40
2019-02-04T09:52:51.149Z,3.41
2019-02-04T09:55:22.436Z,3.49
2019-02-04T09:57:51.216Z,3.74
2019-02-04T10:00:22.401Z,3.82
2019-02-04T10:02:51.295Z,4.11
2019-02-04T10:05:20.139Z,3.99
2019-02-04T10:07:49.082Z,3.61
2019-02-04T10:10:20.425Z,3.81
2019-02-04T10:12:52.350Z,4.11
2019-02-04T10:15:25.726Z,3.96
2019-02-04T10:17:54.555Z,4.47
2019-02-04T10:20:33.490Z,4.69
2019-02-04T10:22:53.884Z,4.19
2019-02-04T10:25:24.564Z,4.39
2019-02-04T10:27:53.522Z,4.25
2019-02-04T10:30:23.185Z,4.71
2019-02-04T10:32:51.903Z,4.37
2019-02-04T10:35:20.646Z,4.92
2019-02-04T10:37:50.553Z,4.98
2019-02-04T10:40:21.215Z,4.87
2019-02-04T10:42:49.875Z,4.90
2019-02-04T10:45:19.211Z,5.15
2019-02-04T10:47:48.651Z,5.41
2019-02-04T10:50:45.630Z,5.05
2019-02-04T10:53:08.981Z,4.87
2019-02-04T10:55:37.899Z,5.23
2019-02-04T10:58:08.244Z,5.27
2019-02-04T11:00:37.410Z,5.60
2019-02-04T11:03:06.812Z,5.52
2019-02-04T11:05:36.038Z,5.01
2019-02-04T11:08:05.725Z,4.64
2019-02-04T11:10:35.798Z,4.51
2019-02-04T11:13:14.163Z,4.66
2019-02-04T11:15:43.897Z,4.63
2019-02-04T11:18:13.351Z,4.67
2019-02-04T11:20:42.457Z,4.46
2019-02-04T11:23:11.168Z,4.32
2019-02-04T11:25:40.172Z,4.32
2019-02-04T11:28:10.511Z,4.44
2019-02-04T11:30:51.240Z,4.50
2019-02-04T11:33:20.566Z,4.64
2019-02-04T11:35:49.700Z,4.92
2019-02-04T11:38:18.669Z,4.96
2019-02-04T11:40:47.263Z,5.14
2019-02-04T11:43:16.044Z,5.08
2019-02-04T11:45:44.867Z,5.45
2019-02-04T11:48:14.740Z,5.32
2019-02-04T11:50:43.569Z,5.41
2019-02-04T11:53:12.581Z,5.36
2019-02-04T11:55:41.484Z,5.45
2019-02-04T11:58:10.359Z,5.36
2019-02-04T12:00:41.676Z,5.32
2019-02-04T12:03:12.378Z,5.19
2019-02-04T12:05:41.333Z,5.03
2019-02-04T12:08:10.769Z,4.83
2019-02-04T12:10:42.837Z,4.92
2019-02-04T12:13:12.117Z,4.39
2019-02-04T12:15:41.774Z,4.62
2019-02-04T12:18:10.876Z,4.37
2019-02-04T12:20:40.109Z,4.41
2019-02-04T12:23:09.022Z,4.05
2019-02-04T12:25:38.052Z,4.19
2019-02-04T12:28:07.221Z,4.16
2019-02-04T12:30:38.438Z,4.14
2019-02-04T12:33:09.264Z,3.93
2019-02-04T12:35:37.916Z,3.73
2019-02-04T12:38:06.731Z,3.68
2019-02-04T12:40:36.131Z,3.58
2019-02-04T12:43:04.905Z,3.45
2019-02-04T12:45:34.570Z,3.66
2019-02-04T12:48:03.623Z,3.43
2019-02-04T12:50:32.676Z,3.41
2019-02-04T12:53:01.549Z,3.50
2019-02-04T12:55:30.813Z,3.37
2019-02-04T12:57:59.790Z,3.27
2019-02-04T13:00:29.101Z,3.28
2019-02-04T13:02:57.890Z,3.25
2019-02-04T13:05:30.219Z,3.23
2019-02-04T13:07:59.187Z,3.29
2019-02-04T13:10:27.948Z,3.29
2019-02-04T13:12:56.986Z,3.31
2019-02-04T13:15:26.526Z,3.25
2019-02-04T13:17:55.588Z,3.28
2019-02-04T13:20:24.405Z,3.10
2019-02-04T13:22:53.115Z,3.17
2019-02-04T13:25:23.704Z,3.25
2019-02-04T13:27:52.615Z,3.07
2019-02-04T13:30:23.460Z,3.00
2019-02-04T13:32:52.096Z,3.04
2019-02-04T13:35:20.978Z,3.16
2019-02-04T13:37:49.922Z,3.21
2019-02-04T13:40:24.325Z,3.11
2019-02-04T13:42:53.481Z,3.04
2019-02-04T13:45:22.597Z,3.08
2019-02-04T13:47:51.731Z,3.05
2019-02-04T13:50:20.822Z,3.03
2019-02-04T13:52:50.737Z,3.04
2019-02-04T13:55:25.234Z,3.04
2019-02-04T13:57:54.259Z,3.14
2019-02-04T14:00:23.618Z,3.02
2019-02-04T14:02:59.298Z,3.02
2019-02-04T14:05:23.103Z,2.99
2019-02-04T14:07:52.065Z,3.03
2019-02-04T14:10:26.561Z,3.08
2019-02-04T14:12:55.266Z,3.06
2019-02-04T14:15:24.540Z,3.07
2019-02-04T14:17:53.704Z,2.99
2019-02-04T14:20:23.016Z,3.05
2019-02-04T14:22:53.415Z,3.08
2019-02-04T14:25:22.536Z,3.07
2019-02-04T14:27:51.499Z,3.08
2019-02-04T14:30:23.078Z,3.05
2019-02-04T14:32:52.354Z,3.02
2019-02-04T14:35:21.303Z,3.06
2019-02-04T14:37:50.237Z,3.11
2019-02-04T14:40:19.135Z,3.04
2019-02-04T14:42:50.694Z,3.06
2019-02-04T14:45:30.800Z,3.11
2019-02-04T14:48:12.831Z,3.09
2019-02-04T14:50:56.409Z,3.03
2019-02-04T14:54:12.006Z,3.05
2019-02-04T14:57:21.103Z,3.04
2019-02-04T15:00:03.062Z,3.04
2019-02-04T15:03:19.645Z,2.98
2019-02-04T15:06:15.286Z,2.98
2019-02-04T15:09:08.384Z,2.95
2019-02-04T15:12:13.769Z,3.00
2019-02-04T15:15:00.339Z,2.95
2019-02-04T15:17:55.592Z,2.93
2019-02-04T15:20:54.137Z,2.93
2019-02-04T15:24:09.071Z,2.91
2019-02-04T15:27:06.598Z,2.92
2019-02-04T15:29:46.863Z,2.95
2019-02-04T15:32:46.330Z,2.93
2019-02-04T15:35:51.103Z,2.85
2019-02-04T15:38:52.634Z,2.93
2019-02-04T15:41:42.435Z,2.89
2019-02-04T15:44:36.527Z,2.83
2019-02-04T15:47:15.872Z,2.83
2019-02-04T15:50:06.857Z,2.92
2019-02-04T15:52:45.170Z,2.91
2019-02-04T15:55:10.476Z,2.95
2019-02-04T15:57:39.117Z,2.90
2019-02-04T16:00:08.611Z,2.90
2019-02-04T16:02:37.278Z,2.89
2019-02-04T16:05:07.288Z,2.84
2019-02-04T16:07:36.134Z,2.82
2019-02-04T16:10:07.427Z,2.77
2019-02-04T16:12:36.311Z,2.81
2019-02-04T16:15:05.965Z,2.77
2019-02-04T16:17:34.790Z,2.82
2019-02-04T16:20:04.250Z,2.84
2019-02-04T16:22:33.407Z,2.84
2019-02-04T16:25:02.299Z,2.85
2019-02-04T16:27:31.270Z,2.88
2019-02-04T16:30:00.554Z,2.90
2019-02-04T16:32:29.399Z,2.88
2019-02-04T16:34:58.273Z,2.86
2019-02-04T16:37:27.198Z,2.88
2019-02-04T16:39:56.373Z,2.88
2019-02-04T16:42:25.563Z,2.84
2019-02-04T16:44:54.425Z,2.84
2019-02-04T16:47:23.706Z,2.84
2019-02-04T16:49:52.370Z,2.86
2019-02-04T16:52:21.325Z,2.86
2019-02-04T16:54:50.274Z,2.93
2019-02-04T16:57:18.911Z,2.94
2019-02-04T16:59:48.725Z,2.95
2019-02-04T17:02:17.730Z,2.99
2019-02-04T17:04:46.662Z,3.01
2019-02-04T17:07:15.937Z,3.00
2019-02-04T17:09:45.384Z,2.99
2019-02-04T17:12:14.027Z,2.95
2019-02-04T17:14:42.765Z,2.93
2019-02-04T17:17:11.397Z,2.94
2019-02-04T17:19:40.039Z,2.95
2019-02-04T17:22:08.699Z,2.98
2019-02-04T17:24:38.200Z,2.94
2019-02-04T17:27:07.173Z,2.92
2019-02-04T17:29:36.089Z,2.92
2019-02-04T17:32:04.902Z,2.92
2019-02-04T17:34:34.898Z,2.94
2019-02-04T17:37:03.625Z,2.96
2019-02-04T17:39:33.129Z,2.94
2019-02-04T17:42:02.069Z,2.97
2019-02-04T17:44:31.168Z,3.00
2019-02-04T17:47:00.305Z,3.01
2019-02-04T17:49:29.229Z,3.05
2019-02-04T17:51:58.325Z,3.03
2019-02-04T17:54:27.562Z,3.07
2019-02-04T17:56:56.374Z,3.03
2019-02-04T17:59:25.315Z,3.01
2019-02-04T18:01:54.116Z,3.07
2019-02-04T18:04:23.029Z,3.13
2019-02-04T18:06:51.843Z,3.03
2019-02-04T18:09:21.110Z,3.09
2019-02-04T18:11:50.002Z,3.08
2019-02-04T18:14:18.962Z,3.08
2019-02-04T18:16:47.579Z,3.09
2019-02-04T18:19:16.542Z,3.10
2019-02-04T18:21:45.264Z,3.06
2019-02-04T18:24:15.061Z,3.08
2019-02-04T18:26:44.048Z,3.06
2019-02-04T18:29:12.681Z,3.09
2019-02-04T18:31:41.635Z,3.14
2019-02-04T18:34:10.267Z,3.11
2019-02-04T18:36:39.384Z,3.13
2019-02-04T18:39:09.870Z,3.13
2019-02-04T18:41:38.800Z,3.14
2019-02-04T18:44:07.840Z,3.16
2019-02-04T18:46:37.052Z,3.17
2019-02-04T18:49:05.991Z,3.17
2019-02-04T18:51:34.835Z,3.15
2019-02-04T18:54:03.872Z,3.21
2019-02-04T18:56:32.786Z,3.20
2019-02-04T18:59:01.433Z,3.17
2019-02-04T19:01:30.375Z,3.20
2019-02-04T19:03:59.271Z,3.18
2019-02-04T19:06:28.264Z,3.19
2019-02-04T19:08:56.881Z,3.20
2019-02-04T19:11:25.954Z,3.17
2019-02-04T19:13:54.853Z,3.18
2019-02-04T19:16:23.892Z,3.24
2019-02-04T19:18:52.886Z,3.18
2019-02-04T19:21:21.771Z,3.16
2019-02-04T19:23:50.675Z,3.18
2019-02-04T19:26:19.307Z,3.15
2019-02-04T19:28:50.879Z,3.20
2019-02-04T19:31:21.827Z,3.28
2019-02-04T19:33:50.741Z,3.12
2019-02-04T19:36:19.682Z,3.20
2019-02-04T19:38:48.488Z,3.25
2019-02-04T19:41:17.345Z,3.25
2019-02-04T19:43:46.281Z,3.34
2019-02-04T19:46:14.935Z,3.38
2019-02-04T19:48:43.892Z,3.38
2019-02-04T19:51:12.517Z,3.47
2019-02-04T19:53:41.229Z,3.49
2019-02-04T19:56:09.935Z,3.51
2019-02-04T19:58:38.829Z,3.48
2019-02-04T20:01:07.724Z,3.50
2019-02-04T20:03:37.192Z,3.50
2019-02-04T20:06:06.873Z,3.49
2019-02-04T20:08:35.680Z,3.50
2019-02-04T20:11:04.830Z,3.53
2019-02-04T20:13:33.544Z,3.55
2019-02-04T20:16:02.250Z,3.61
2019-02-04T20:18:31.195Z,3.61
2019-02-04T20:21:00.314Z,3.61
2019-02-04T20:23:29.418Z,3.55
2019-02-04T20:25:58.030Z,3.52
2019-02-04T20:28:26.681Z,3.56
2019-02-04T20:30:55.614Z,3.53
2019-02-04T20:33:24.284Z,3.52
2019-02-04T20:35:53.159Z,3.48
2019-02-04T20:38:29.080Z,3.44
2019-02-04T20:40:57.978Z,3.46
2019-02-04T20:43:26.911Z,3.43
2019-02-04T20:45:55.822Z,3.45
2019-02-04T20:48:24.877Z,3.36
2019-02-04T20:50:53.811Z,3.43
2019-02-04T20:53:23.072Z,3.42
2019-02-04T20:55:51.751Z,3.48
2019-02-04T20:58:20.498Z,3.48
2019-02-04T21:00:49.470Z,3.49
2019-02-04T21:03:18.401Z,3.46
2019-02-04T21:05:47.330Z,3.52
2019-02-04T21:08:16.128Z,3.55
2019-02-04T21:10:44.781Z,3.60
2019-02-04T21:13:13.749Z,3.60
2019-02-04T21:15:42.652Z,3.54
2019-02-04T21:18:11.724Z,3.59
2019-02-04T21:20:40.884Z,3.57
2019-02-04T21:23:10.000Z,3.57
2019-02-04T21:25:39.135Z,3.61
2019-02-04T21:28:07.744Z,3.58
2019-02-04T21:30:39.045Z,3.57
2019-02-04T21:33:08.099Z,3.60
2019-02-04T21:35:37.057Z,3.55
2019-02-04T21:38:06.523Z,3.55
2019-02-04T21:40:35.405Z,3.59
2019-02-04T21:43:04.218Z,3.53
2019-02-04T21:45:32.826Z,3.52
2019-02-04T21:48:01.721Z,3.52
2019-02-04T21:50:30.415Z,3.55
2019-02-04T21:52:59.126Z,3.52
2019-02-04T21:55:28.551Z,3.52
2019-02-04T21:57:57.432Z,3.50
2019-02-04T22:00:31.785Z,3.50
2019-02-04T22:03:00.711Z,3.45
2019-02-04T22:05:30.684Z,3.48
2019-02-04T22:07:59.882Z,3.46
2019-02-04T22:10:29.503Z,3.48
2019-02-04T22:12:58.793Z,3.44
2019-02-04T22:15:27.558Z,3.53
2019-02-04T22:17:56.801Z,3.53
2019-02-04T22:20:26.166Z,3.48
2019-02-04T22:22:55.146Z,3.51
2019-02-04T22:25:24.477Z,3.45
2019-02-04T22:27:53.209Z,3.42
2019-02-04T22:30:24.025Z,3.46
2019-02-04T22:32:53.009Z,3.54
2019-02-04T22:35:22.132Z,3.51
2019-02-04T22:37:50.817Z,3.53
2019-02-04T22:40:25.394Z,3.49
2019-02-04T22:42:54.360Z,3.60
2019-02-04T22:45:23.088Z,3.61
2019-02-04T22:47:51.863Z,3.53
2019-02-04T22:50:25.534Z,3.48
2019-02-04T22:52:54.300Z,3.54
2019-02-04T22:55:31.793Z,3.53
2019-02-04T22:57:54.596Z,3.61
2019-02-04T23:00:50.009Z,3.53
2019-02-04T23:03:20.624Z,3.52
2019-02-04T23:05:50.142Z,3.50
2019-02-04T23:08:18.864Z,3.48
2019-02-04T23:10:47.620Z,3.52
2019-02-04T23:13:16.247Z,3.38
2019-02-04T23:15:45.202Z,3.46
2019-02-04T23:18:14.883Z,3.44
2019-02-04T23:20:43.879Z,3.41
2019-02-04T23:23:12.723Z,3.41
2019-02-04T23:25:43.616Z,3.37
2019-02-04T23:28:12.067Z,3.38
2019-02-04T23:30:40.741Z,3.38
2019-02-04T23:33:09.736Z,3.43
2019-02-04T23:35:38.729Z,3.36
2019-02-04T23:38:07.444Z,3.40
2019-02-04T23:40:36.073Z,3.39
2019-02-04T23:43:05.769Z,3.35
2019-02-04T23:45:34.428Z,3.39
2019-02-04T23:48:03.057Z,3.34
2019-02-04T23:50:32.250Z,3.39
2019-02-04T23:53:01.155Z,3.34
2019-02-04T23:55:30.150Z,3.35
2019-02-04T23:57:58.765Z,3.34
